Time;durP1;ratioP1;P1;durP2;ratioP2;P2;SDS_P1;SDS_P2;PMS_P1;PMS_P2;Temp;Humidity;BMP_temperature;BMP_pressure;BME280_temperature;BME280_humidity;BME280_pressure;Samples;Min_cycle;Max_cycle;Signal;HPM_P1;HPM_P2
2023/11/28 00:01:20;;;;;;;0.40;0.40;;;7.10;94.10;;;;;;4918199;29;20199;-61
2023/11/28 00:03:46;;;;;;;0.60;0.40;;;7.30;93.80;;;;;;4918234;29;20179;-61
2023/11/28 00:06:17;;;;;;;0.30;0.30;;;7.20;94.00;;;;;;4918287;29;20461;-61
2023/11/28 00:08:42;;;;;;;0.30;0.30;;;7.20;94.20;;;;;;4918331;29;20171;-61
2023/11/28 00:11:08;;;;;;;0.53;0.40;;;7.20;94.00;;;;;;4917298;29;20671;-61
2023/11/28 00:13:34;;;;;;;0.40;0.40;;;7.30;94.20;;;;;;4917841;29;20203;-61
2023/11/28 00:15:59;;;;;;;0.30;0.30;;;7.40;93.70;;;;;;4917963;29;20171;-61
2023/11/28 00:18:25;;;;;;;0.40;0.40;;;7.30;93.80;;;;;;4918040;29;20183;-61
2023/11/28 00:20:50;;;;;;;0.50;0.50;;;7.20;94.10;;;;;;4917955;29;20592;-61
2023/11/28 00:23:16;;;;;;;0.30;0.30;;;7.20;94.60;;;;;;4917710;29;20179;-61
2023/11/28 00:25:42;;;;;;;0.30;0.30;;;7.20;94.50;;;;;;4918301;29;20210;-61
2023/11/28 00:28:08;;;;;;;0.40;0.40;;;7.40;94.20;;;;;;4917891;29;20163;-61
2023/11/28 00:30:34;;;;;;;0.73;0.50;;;7.50;94.00;;;;;;4917742;29;20188;-61
2023/11/28 00:33:01;;;;;;;0.30;0.30;;;7.50;94.00;;;;;;4917456;29;20171;-61
2023/11/28 00:35:28;;;;;;;0.30;0.30;;;7.60;93.80;;;;;;4917715;29;20589;-61
2023/11/28 00:37:53;;;;;;;0.60;0.50;;;7.40;94.30;;;;;;4917692;29;20185;-61
2023/11/28 00:40:19;;;;;;;1.13;1.13;;;7.20;94.40;;;;;;4917672;29;20174;-61
2023/11/28 00:42:44;;;;;;;0.40;0.40;;;7.30;94.20;;;;;;4917355;29;20181;-60
2023/11/28 00:45:12;;;;;;;0.30;0.30;;;7.50;94.20;;;;;;4917149;29;20207;-61
2023/11/28 00:47:40;;;;;;;0.63;0.63;;;7.50;94.00;;;;;;4917609;29;20171;-61
2023/11/28 00:50:06;;;;;;;0.30;0.30;;;7.20;94.30;;;;;;4917421;29;20187;-61
2023/11/28 00:52:32;;;;;;;0.30;0.30;;;7.00;94.90;;;;;;4917295;29;20227;-61
2023/11/28 00:54:57;;;;;;;0.40;0.40;;;7.00;95.20;;;;;;4917601;29;20177;-61
2023/11/28 00:57:23;;;;;;;0.30;0.30;;;6.90;95.10;;;;;;4917419;29;20171;-61
2023/11/28 00:59:49;;;;;;;0.40;0.40;;;7.20;94.70;;;;;;4917352;29;20177;-61
2023/11/28 01:02:16;;;;;;;0.40;0.40;;;7.30;94.10;;;;;;4917303;29;20199;-61
2023/11/28 01:04:42;;;;;;;0.30;0.30;;;7.20;94.10;;;;;;4916918;29;20207;-61
2023/11/28 01:07:07;;;;;;;0.30;0.30;;;7.30;94.30;;;;;;4917295;29;20175;-61
2023/11/28 01:09:34;;;;;;;0.30;0.30;;;7.30;94.10;;;;;;4917289;29;20163;-61
2023/11/28 01:11:59;;;;;;;0.40;0.40;;;7.40;94.20;;;;;;4917210;29;20672;-61
2023/11/28 01:14:27;;;;;;;0.30;0.30;;;7.30;94.10;;;;;;4916921;29;20191;-61
2023/11/28 01:16:52;;;;;;;0.40;0.40;;;7.30;94.20;;;;;;4915933;29;20179;-61
2023/11/28 01:19:19;;;;;;;0.30;0.30;;;7.40;94.20;;;;;;4917128;29;20238;-61
2023/11/28 01:21:44;;;;;;;1.48;0.85;;;7.50;94.40;;;;;;4916843;29;20196;-61
2023/11/28 01:24:10;;;;;;;0.40;0.40;;;7.50;94.40;;;;;;4899601;29;20222;-61
2023/11/28 01:26:36;;;;;;;0.30;0.30;;;7.50;93.80;;;;;;4917031;29;20171;-60
2023/11/28 01:29:03;;;;;;;0.30;0.30;;;7.30;94.40;;;;;;4917400;29;20250;-61
2023/11/28 01:31:30;;;;;;;0.43;0.43;;;7.50;94.20;;;;;;4916729;29;20668;-61
2023/11/28 01:33:56;;;;;;;0.30;0.30;;;7.30;94.60;;;;;;4899951;29;20314;-61
2023/11/28 01:36:22;;;;;;;0.40;0.40;;;7.40;95.00;;;;;;4916738;29;20167;-61
2023/11/28 01:38:47;;;;;;;0.40;0.40;;;7.50;94.50;;;;;;4916756;29;20266;-61
2023/11/28 01:41:13;;;;;;;0.40;0.40;;;7.60;94.10;;;;;;4916648;29;20266;-61
2023/11/28 01:43:38;;;;;;;0.30;0.30;;;7.40;93.90;;;;;;4916269;29;20225;-61
2023/11/28 01:46:09;;;;;;;0.30;0.30;;;7.10;94.30;;;;;;4916628;29;20249;-61
2023/11/28 01:48:35;;;;;;;0.30;0.30;;;7.30;94.40;;;;;;4916832;29;20561;-61
2023/11/28 01:51:01;;;;;;;0.30;0.30;;;7.30;94.30;;;;;;4916338;29;20815;-61
2023/11/28 01:53:30;;;;;;;0.40;0.40;;;7.20;94.60;;;;;;4899145;29;20282;-61
2023/11/28 01:55:55;;;;;;;0.40;0.40;;;7.40;94.30;;;;;;4916226;29;20450;-60
2023/11/28 01:58:22;;;;;;;0.30;0.30;;;7.40;94.20;;;;;;4916337;29;20202;-61
2023/11/28 02:00:48;;;;;;;0.40;0.40;;;7.40;94.30;;;;;;4916171;29;20201;-61
2023/11/28 02:03:15;;;;;;;0.30;0.30;;;7.60;94.10;;;;;;4916113;29;20184;-61
2023/11/28 02:05:40;;;;;;;0.30;0.30;;;7.80;93.90;;;;;;4895656;29;20211;-61
2023/11/28 02:08:10;;;;;;;0.30;0.30;;;7.80;93.50;;;;;;4913665;29;20231;-61
2023/11/28 02:10:39;;;;;;;0.30;0.30;;;7.80;93.60;;;;;;4915963;29;20191;-61
2023/11/28 02:13:06;;;;;;;0.30;0.30;;;7.70;94.20;;;;;;4915781;29;20174;-61
2023/11/28 02:15:40;;;;;;;0.30;0.30;;;7.80;93.80;;;;;;4915988;29;20178;-61
2023/11/28 02:18:07;;;;;;;0.38;0.38;;;7.60;94.00;;;;;;4915928;29;20182;-61
2023/11/28 02:20:34;;;;;;;0.40;0.40;;;7.40;94.00;;;;;;4915828;29;20202;-61
2023/11/28 02:22:59;;;;;;;0.30;0.30;;;7.60;93.40;;;;;;4916015;29;20183;-61
2023/11/28 02:25:28;;;;;;;0.40;0.40;;;7.60;93.30;;;;;;4915761;29;20740;-61
2023/11/28 02:27:53;;;;;;;0.38;0.38;;;7.60;93.40;;;;;;4915761;29;20186;-61
2023/11/28 02:30:19;;;;;;;0.40;0.40;;;7.60;93.30;;;;;;4915744;29;20259;-61
2023/11/28 02:32:45;;;;;;;0.30;0.30;;;7.50;93.50;;;;;;4898481;29;20187;-61
2023/11/28 02:35:11;;;;;;;0.33;0.33;;;7.30;93.90;;;;;;4915326;29;20674;-61
2023/11/28 02:37:37;;;;;;;1.58;0.68;;;6.90;94.30;;;;;;4915621;29;20838;-61
2023/11/28 02:40:04;;;;;;;0.40;0.40;;;6.70;94.60;;;;;;4915553;29;20191;-61
2023/11/28 02:42:30;;;;;;;0.30;0.30;;;6.80;94.90;;;;;;4915509;29;20191;-61
2023/11/28 02:44:56;;;;;;;0.30;0.30;;;6.80;94.70;;;;;;4915308;29;20199;-61
2023/11/28 02:47:22;;;;;;;0.30;0.30;;;6.70;94.80;;;;;;4915565;29;20193;-60
2023/11/28 02:49:49;;;;;;;0.30;0.30;;;6.60;94.90;;;;;;4915609;29;20554;-61
2023/11/28 02:52:16;;;;;;;0.40;0.40;;;6.50;95.10;;;;;;4915255;29;20773;-61
2023/11/28 02:54:41;;;;;;;0.30;0.30;;;6.50;95.20;;;;;;4915276;29;20234;-61
2023/11/28 02:57:08;;;;;;;0.30;0.30;;;6.30;95.80;;;;;;4915533;29;20210;-61
2023/11/28 02:59:34;;;;;;;0.40;0.40;;;6.60;95.60;;;;;;4915552;29;20211;-61
2023/11/28 03:02:00;;;;;;;0.40;0.40;;;6.70;95.40;;;;;;4915379;29;20290;-61
2023/11/28 03:04:25;;;;;;;0.30;0.30;;;6.90;95.00;;;;;;4915099;29;20203;-61
2023/11/28 03:06:51;;;;;;;0.40;0.40;;;7.10;94.50;;;;;;4915398;29;20518;-61
2023/11/28 03:09:16;;;;;;;0.30;0.30;;;7.20;93.90;;;;;;4915562;29;20748;-60
2023/11/28 03:11:45;;;;;;;0.40;0.40;;;7.30;94.00;;;;;;4915439;29;20198;-60
2023/11/28 03:14:10;;;;;;;0.32;0.32;;;7.20;94.10;;;;;;4915083;29;20258;-61
2023/11/28 03:16:36;;;;;;;0.30;0.30;;;7.20;94.50;;;;;;4913806;29;20183;-61
2023/11/28 03:19:01;;;;;;;0.30;0.30;;;7.00;94.40;;;;;;4915236;29;20234;-61
2023/11/28 03:21:27;;;;;;;0.30;0.30;;;7.00;94.90;;;;;;4915286;29;20247;-61
2023/11/28 03:23:54;;;;;;;0.30;0.30;;;7.20;94.70;;;;;;4915036;29;20606;-61
2023/11/28 03:26:20;;;;;;;0.30;0.30;;;7.30;94.30;;;;;;4915300;29;20253;-61
2023/11/28 03:28:45;;;;;;;0.40;0.40;;;7.40;94.30;;;;;;4915326;29;20595;-61
2023/11/28 03:31:12;;;;;;;0.30;0.30;;;7.30;94.20;;;;;;4914878;29;20238;-61
2023/11/28 03:33:37;;;;;;;0.40;0.40;;;7.40;94.70;;;;;;4914773;29;20185;-61
2023/11/28 03:36:03;;;;;;;0.40;0.40;;;7.40;94.90;;;;;;4915127;29;20649;-61
2023/11/28 03:38:29;;;;;;;0.40;0.40;;;7.30;95.40;;;;;;4915254;29;20187;-61
2023/11/28 03:40:56;;;;;;;0.30;0.30;;;7.20;95.30;;;;;;4915127;29;20440;-61
2023/11/28 03:43:21;;;;;;;0.30;0.30;;;7.40;95.00;;;;;;4914738;29;20172;-61
2023/11/28 03:45:47;;;;;;;0.30;0.30;;;7.30;95.50;;;;;;4915327;29;20222;-61
2023/11/28 03:48:13;;;;;;;0.63;0.40;;;7.50;95.10;;;;;;4918428;29;20176;-61
2023/11/28 03:50:38;;;;;;;0.37;0.37;;;7.50;94.80;;;;;;4918336;29;20210;-61
2023/11/28 03:53:04;;;;;;;0.40;0.40;;;7.10;95.20;;;;;;4918180;29;20200;-61
2023/11/28 03:55:29;;;;;;;0.40;0.40;;;7.40;95.00;;;;;;4918341;29;20215;-61
2023/11/28 03:57:55;;;;;;;0.50;0.50;;;7.70;94.20;;;;;;4918471;29;20254;-61
2023/11/28 04:00:21;;;;;;;0.60;0.60;;;7.50;95.10;;;;;;4918289;29;20676;-61
2023/11/28 04:02:47;;;;;;;0.30;0.30;;;7.50;94.80;;;;;;4917759;29;20262;-60
2023/11/28 04:05:14;;;;;;;0.40;0.40;;;7.50;94.70;;;;;;4918231;29;20338;-61
2023/11/28 04:07:39;;;;;;;0.40;0.40;;;7.60;94.70;;;;;;4918386;29;20536;-61
2023/11/28 04:10:06;;;;;;;0.40;0.40;;;7.00;95.70;;;;;;4918575;29;20254;-61
2023/11/28 04:12:32;;;;;;;0.30;0.30;;;7.30;96.20;;;;;;4918114;29;20453;-60
2023/11/28 04:14:57;;;;;;;0.50;0.50;;;7.40;95.80;;;;;;4917947;29;20212;-61
2023/11/28 04:17:23;;;;;;;0.60;0.60;;;7.40;95.10;;;;;;4917755;29;20183;-61
2023/11/28 04:19:49;;;;;;;0.30;0.30;;;7.40;95.30;;;;;;4917873;29;20210;-61
2023/11/28 04:22:14;;;;;;;0.70;0.70;;;7.40;94.40;;;;;;4917623;29;20440;-61
2023/11/28 04:24:40;;;;;;;0.50;0.50;;;7.20;94.70;;;;;;4918017;29;20229;-61
2023/11/28 04:27:06;;;;;;;0.33;0.33;;;7.00;94.80;;;;;;4900945;29;20715;-61
2023/11/28 04:29:31;;;;;;;0.30;0.30;;;6.70;96.00;;;;;;4917641;29;20192;-61
2023/11/28 04:31:57;;;;;;;0.40;0.40;;;6.40;96.20;;;;;;4917626;29;20725;-62
2023/11/28 04:34:23;;;;;;;0.30;0.30;;;6.50;96.40;;;;;;4900134;29;20181;-61
2023/11/28 04:36:50;;;;;;;0.30;0.30;;;6.70;96.40;;;;;;4917728;29;20423;-63
2023/11/28 04:39:15;;;;;;;0.30;0.30;;;6.80;96.20;;;;;;4917395;29;20179;-62
2023/11/28 04:41:41;;;;;;;0.30;0.30;;;6.90;96.10;;;;;;4917489;29;20203;-62
2023/11/28 04:44:07;;;;;;;0.40;0.40;;;7.00;95.60;;;;;;4928279;29;20182;-62
2023/11/28 04:46:32;;;;;;;0.30;0.30;;;7.20;95.50;;;;;;4936043;29;20265;-62
2023/11/28 04:48:58;;;;;;;0.40;0.40;;;7.10;95.60;;;;;;4936168;29;20707;-62
2023/11/28 04:51:23;;;;;;;1.03;0.80;;;7.10;95.50;;;;;;4918981;29;20210;-62
2023/11/28 04:53:49;;;;;;;0.70;0.50;;;7.10;95.50;;;;;;4935192;29;20194;-62
2023/11/28 04:56:15;;;;;;;0.30;0.30;;;7.10;95.70;;;;;;4935624;29;20267;-62
2023/11/28 04:58:43;;;;;;;0.53;0.53;;;7.10;95.70;;;;;;4918460;29;20295;-62
2023/11/28 05:01:09;;;;;;;0.40;0.40;;;7.00;95.90;;;;;;4935410;29;20193;-62
2023/11/28 05:03:34;;;;;;;0.30;0.30;;;7.10;96.00;;;;;;4935391;29;20186;-62
2023/11/28 05:06:00;;;;;;;0.37;0.37;;;7.10;95.80;;;;;;4935528;29;20198;-62
2023/11/28 05:08:26;;;;;;;0.40;0.40;;;7.10;96.00;;;;;;4918476;29;20509;-62
2023/11/28 05:10:52;;;;;;;0.30;0.30;;;7.20;96.00;;;;;;4918387;29;20215;-62
2023/11/28 05:13:18;;;;;;;0.50;0.50;;;7.20;95.20;;;;;;4935045;29;20182;-62
2023/11/28 05:15:43;;;;;;;0.30;0.30;;;7.30;95.00;;;;;;4935202;29;20171;-62
2023/11/28 05:18:12;;;;;;;0.30;0.30;;;7.30;94.90;;;;;;4935374;29;20342;-62
2023/11/28 05:20:37;;;;;;;0.40;0.40;;;7.40;94.70;;;;;;4935229;29;20194;-62
2023/11/28 05:23:03;;;;;;;0.30;0.30;;;7.40;94.70;;;;;;4935036;29;20184;-62
2023/11/28 05:25:29;;;;;;;0.30;0.30;;;7.30;94.80;;;;;;4918087;29;20190;-62
2023/11/28 05:27:56;;;;;;;1.03;0.50;;;7.30;94.80;;;;;;4935210;29;20198;-62
2023/11/28 05:30:21;;;;;;;1.40;0.88;;;7.40;95.20;;;;;;4935353;29;20722;-62
2023/11/28 05:32:47;;;;;;;0.30;0.30;;;7.50;94.80;;;;;;4935282;29;20182;-62
2023/11/28 05:35:12;;;;;;;0.40;0.40;;;7.50;94.40;;;;;;4935548;29;20182;-62
2023/11/28 05:37:38;;;;;;;0.40;0.40;;;7.40;94.70;;;;;;4935434;29;20240;-62
2023/11/28 05:40:04;;;;;;;0.33;0.33;;;7.30;94.90;;;;;;4934800;29;20178;-62
2023/11/28 05:42:30;;;;;;;0.40;0.40;;;7.40;95.10;;;;;;4934711;29;20633;-62
2023/11/28 05:44:56;;;;;;;0.40;0.40;;;7.50;94.90;;;;;;4934465;29;20214;-62
2023/11/28 05:47:22;;;;;;;0.30;0.30;;;7.20;95.10;;;;;;4934977;29;20174;-62
2023/11/28 05:49:48;;;;;;;0.40;0.40;;;7.20;95.30;;;;;;4917716;29;20186;-63
2023/11/28 05:52:13;;;;;;;0.30;0.30;;;7.10;95.50;;;;;;4934547;29;20582;-62
2023/11/28 05:54:39;;;;;;;0.40;0.40;;;6.90;95.70;;;;;;4934665;29;20260;-62
2023/11/28 05:57:05;;;;;;;0.33;0.33;;;7.00;96.10;;;;;;4917843;29;20178;-62
2023/11/28 05:59:30;;;;;;;0.77;0.70;;;7.20;95.70;;;;;;4917525;29;20832;-63
2023/11/28 06:01:58;;;;;;;0.30;0.30;;;7.10;95.90;;;;;;4934524;29;20285;-62
2023/11/28 06:04:24;;;;;;;0.40;0.40;;;7.30;95.20;;;;;;4913615;29;20266;-63
2023/11/28 06:06:50;;;;;;;0.40;0.40;;;7.30;94.90;;;;;;4930826;29;20274;-62
2023/11/28 06:09:15;;;;;;;0.30;0.30;;;7.20;94.90;;;;;;4934272;29;20648;-62
2023/11/28 06:11:41;;;;;;;0.30;0.30;;;7.00;95.30;;;;;;4934895;29;20192;-62
2023/11/28 06:14:07;;;;;;;0.40;0.40;;;6.80;95.50;;;;;;4934592;29;20201;-62
2023/11/28 06:16:32;;;;;;;0.40;0.40;;;7.00;95.50;;;;;;4934858;29;20253;-62
2023/11/28 06:18:58;;;;;;;0.33;0.33;;;7.10;95.40;;;;;;4934939;29;20711;-62
2023/11/28 06:21:24;;;;;;;0.40;0.40;;;6.90;95.30;;;;;;4934017;29;20276;-62
2023/11/28 06:23:49;;;;;;;0.30;0.30;;;7.00;95.50;;;;;;4934067;29;20189;-61
2023/11/28 06:26:15;;;;;;;0.30;0.30;;;7.20;95.10;;;;;;4916988;29;20461;-62
2023/11/28 06:28:41;;;;;;;0.47;0.47;;;7.40;95.00;;;;;;4934173;29;20180;-61
2023/11/28 06:31:06;;;;;;;0.40;0.40;;;7.60;94.70;;;;;;4934148;29;20870;-61
2023/11/28 06:33:32;;;;;;;0.30;0.30;;;7.90;94.00;;;;;;4931044;29;20179;-61
2023/11/28 06:35:58;;;;;;;0.30;0.30;;;8.00;93.60;;;;;;4917169;29;20489;-61
2023/11/28 06:38:23;;;;;;;0.40;0.40;;;7.80;93.70;;;;;;4916728;29;20561;-62
2023/11/28 06:40:52;;;;;;;0.30;0.30;;;7.20;94.30;;;;;;4934055;29;20281;-61
2023/11/28 06:43:18;;;;;;;0.35;0.35;;;6.70;95.00;;;;;;4933797;29;20178;-61
2023/11/28 06:45:43;;;;;;;0.30;0.30;;;6.10;95.80;;;;;;4933720;29;20239;-61
2023/11/28 06:48:10;;;;;;;0.60;0.60;;;5.70;96.90;;;;;;4934151;29;20222;-62
2023/11/28 06:50:36;;;;;;;0.30;0.30;;;5.40;97.40;;;;;;4933879;29;20209;-61
2023/11/28 06:53:02;;;;;;;0.60;0.40;;;5.10;98.00;;;;;;4933717;29;20564;-61
2023/11/28 06:55:28;;;;;;;0.30;0.30;;;4.70;98.90;;;;;;4933942;29;20420;-61
2023/11/28 06:57:54;;;;;;;0.30;0.30;;;4.70;99.40;;;;;;4933115;29;20189;-62
2023/11/28 07:00:21;;;;;;;0.32;0.32;;;4.60;99.40;;;;;;4933777;29;20657;-61
2023/11/28 07:02:47;;;;;;;0.40;0.40;;;4.40;99.70;;;;;;4933957;29;20564;-61
2023/11/28 07:05:13;;;;;;;0.30;0.30;;;4.30;99.90;;;;;;4933855;29;20190;-61
2023/11/28 07:07:39;;;;;;;0.30;0.30;;;4.30;99.90;;;;;;4933985;29;20178;-61
2023/11/28 07:10:08;;;;;;;0.40;0.40;;;4.40;99.90;;;;;;4933840;29;20418;-61
2023/11/28 07:12:33;;;;;;;0.30;0.30;;;4.50;99.90;;;;;;4933668;29;20174;-61
2023/11/28 07:14:59;;;;;;;0.40;0.40;;;4.60;99.90;;;;;;4933821;29;20567;-63
2023/11/28 07:17:27;;;;;;;0.40;0.40;;;4.40;99.90;;;;;;4916795;29;20178;-61
2023/11/28 07:19:53;;;;;;;0.30;0.30;;;4.30;99.90;;;;;;4934925;29;20181;-61
2023/11/28 07:22:18;;;;;;;0.40;0.40;;;4.30;99.90;;;;;;4938117;29;20202;-61
2023/11/28 07:24:47;;;;;;;0.33;0.33;;;4.40;99.90;;;;;;4937787;29;20209;-61
2023/11/28 07:27:13;;;;;;;0.40;0.40;;;4.40;99.90;;;;;;4938225;29;20251;-61
2023/11/28 07:29:39;;;;;;;0.32;0.32;;;4.20;99.90;;;;;;4938014;29;20177;-61
2023/11/28 07:32:05;;;;;;;0.40;0.40;;;4.30;99.90;;;;;;4938012;29;20198;-61
2023/11/28 07:34:31;;;;;;;0.30;0.30;;;4.40;99.90;;;;;;4937721;29;20425;-61
2023/11/28 07:36:58;;;;;;;0.37;0.37;;;4.50;99.90;;;;;;4937858;29;20249;-61
2023/11/28 07:39:24;;;;;;;0.30;0.30;;;4.40;99.90;;;;;;4937714;29;20170;-61
2023/11/28 07:41:49;;;;;;;0.40;0.40;;;4.20;99.90;;;;;;4937578;29;20206;-61
2023/11/28 07:44:16;;;;;;;0.50;0.50;;;4.10;99.90;;;;;;4919343;29;20688;-61
2023/11/28 07:46:43;;;;;;;0.30;0.30;;;4.10;99.90;;;;;;4937179;29;20171;-61
2023/11/28 07:49:08;;;;;;;0.40;0.40;;;4.00;99.90;;;;;;4934665;29;20241;-61
2023/11/28 07:51:34;;;;;;;0.40;0.40;;;4.10;99.90;;;;;;4936888;29;20209;-61
2023/11/28 07:54:01;;;;;;;0.50;0.50;;;4.30;99.90;;;;;;4936575;29;20178;-61
2023/11/28 07:56:27;;;;;;;0.52;0.52;;;4.40;99.90;;;;;;4936875;29;20627;-62
2023/11/28 07:58:52;;;;;;;0.30;0.30;;;4.40;99.90;;;;;;4916672;29;20242;-61
2023/11/28 08:01:18;;;;;;;0.47;0.47;;;4.40;99.70;;;;;;4936643;29;20524;-61
2023/11/28 08:03:43;;;;;;;2.50;1.33;;;4.40;99.70;;;;;;4936925;29;20257;-61
2023/11/28 08:06:11;;;;;;;0.40;0.40;;;4.10;99.30;;;;;;4937187;29;20238;-61
2023/11/28 08:08:37;;;;;;;0.40;0.40;;;4.10;99.90;;;;;;4937126;29;20549;-61
2023/11/28 08:11:02;;;;;;;0.40;0.40;;;4.20;99.90;;;;;;4920179;29;20218;-61
2023/11/28 08:13:28;;;;;;;0.30;0.30;;;4.20;99.90;;;;;;4936875;29;20489;-61
2023/11/28 08:15:55;;;;;;;0.30;0.30;;;4.30;99.90;;;;;;4937078;29;20414;-62
2023/11/28 08:18:21;;;;;;;0.40;0.40;;;4.30;99.90;;;;;;4936312;29;20185;-61
2023/11/28 08:20:48;;;;;;;2.85;0.47;;;4.40;99.90;;;;;;4936467;29;20201;-62
2023/11/28 08:23:13;;;;;;;0.40;0.40;;;4.30;99.90;;;;;;4936153;29;20170;-61
2023/11/28 08:25:39;;;;;;;0.30;0.30;;;4.10;99.90;;;;;;4936339;29;20461;-61
2023/11/28 08:28:04;;;;;;;0.50;0.50;;;3.80;99.90;;;;;;4936371;29;20173;-61
2023/11/28 08:30:31;;;;;;;0.40;0.40;;;3.90;99.90;;;;;;4916383;29;20191;-61
2023/11/28 08:32:56;;;;;;;0.40;0.40;;;4.00;99.90;;;;;;4932656;29;20629;-61
2023/11/28 08:35:22;;;;;;;0.40;0.40;;;3.80;99.90;;;;;;4936922;29;20188;-62
2023/11/28 08:37:48;;;;;;;0.50;0.50;;;3.70;99.90;;;;;;4933970;29;20186;-61
2023/11/28 08:40:13;;;;;;;0.40;0.40;;;3.60;99.90;;;;;;4935912;29;20273;-61
2023/11/28 08:42:39;;;;;;;0.30;0.30;;;3.60;99.90;;;;;;4936344;29;20273;-60
2023/11/28 08:45:05;;;;;;;0.37;0.37;;;3.80;99.90;;;;;;4936546;29;20583;-61
2023/11/28 08:47:31;;;;;;;0.30;0.30;;;4.00;99.90;;;;;;4936796;29;20182;-61
2023/11/28 08:49:59;;;;;;;0.40;0.40;;;4.10;99.90;;;;;;4936680;29;20183;-61
2023/11/28 08:52:26;;;;;;;0.30;0.30;;;4.30;99.90;;;;;;4936295;29;20285;-61
2023/11/28 08:54:53;;;;;;;0.35;0.35;;;4.40;99.70;;;;;;4936154;29;20176;-61
2023/11/28 08:57:19;;;;;;;0.40;0.40;;;4.40;98.80;;;;;;4934929;29;20178;-60
2023/11/28 08:59:45;;;;;;;0.40;0.40;;;4.40;98.50;;;;;;4935632;29;20217;-61
2023/11/28 09:02:10;;;;;;;0.40;0.40;;;4.50;98.50;;;;;;4932229;29;20197;-62
2023/11/28 09:04:37;;;;;;;0.30;0.30;;;4.60;98.50;;;;;;4935572;29;20225;-61
2023/11/28 09:07:04;;;;;;;0.50;0.50;;;4.70;98.50;;;;;;4935654;29;20178;-61
2023/11/28 09:09:30;;;;;;;0.40;0.40;;;4.80;98.00;;;;;;4935837;29;20513;-61
2023/11/28 09:11:56;;;;;;;0.37;0.37;;;4.80;97.90;;;;;;4935619;29;20194;-61
2023/11/28 09:14:21;;;;;;;0.30;0.30;;;4.80;97.90;;;;;;4934633;29;20174;-61
2023/11/28 09:16:47;;;;;;;0.40;0.40;;;4.80;97.50;;;;;;4935520;29;20583;-61
2023/11/28 09:19:14;;;;;;;0.50;0.50;;;4.80;97.60;;;;;;4935505;29;20521;-61
2023/11/28 09:21:40;;;;;;;0.40;0.40;;;4.80;97.40;;;;;;4935452;29;20194;-61
2023/11/28 09:24:08;;;;;;;0.40;0.40;;;4.80;97.70;;;;;;4918486;29;20568;-61
2023/11/28 09:26:34;;;;;;;0.30;0.30;;;4.70;97.50;;;;;;4935888;29;20300;-61
2023/11/28 09:29:01;;;;;;;0.40;0.40;;;4.70;98.10;;;;;;4935957;29;20559;-61
2023/11/28 09:31:28;;;;;;;0.40;0.40;;;4.60;97.60;;;;;;4918741;29;20194;-61
2023/11/28 09:33:56;;;;;;;0.40;0.40;;;4.40;97.10;;;;;;4935625;29;20170;-60
2023/11/28 09:36:21;;;;;;;0.40;0.40;;;4.40;97.90;;;;;;4935692;29;20182;-61
2023/11/28 09:38:48;;;;;;;0.47;0.47;;;4.50;97.80;;;;;;4935896;29;20180;-61
2023/11/28 09:41:26;;;;;;;0.40;0.40;;;4.50;97.70;;;;;;4935230;29;20245;-61
2023/11/28 09:43:56;;;;;;;0.60;0.55;;;4.60;97.60;;;;;;4933847;29;20209;-61
2023/11/28 09:46:23;;;;;;;0.40;0.40;;;4.50;97.60;;;;;;4935621;29;20233;-61
2023/11/28 09:48:53;;;;;;;0.50;0.50;;;4.50;97.20;;;;;;4917726;29;20190;-61
2023/11/28 09:51:20;;;;;;;0.60;0.50;;;4.60;97.00;;;;;;4935244;29;20202;-61
2023/11/28 09:53:48;;;;;;;0.30;0.30;;;4.70;97.40;;;;;;4935031;29;20177;-61
2023/11/28 09:56:18;;;;;;;0.40;0.40;;;4.80;96.90;;;;;;4934701;29;20222;-62
2023/11/28 09:58:45;;;;;;;0.40;0.40;;;4.80;96.70;;;;;;4934826;29;20171;-61
2023/11/28 10:01:14;;;;;;;0.30;0.30;;;4.80;96.40;;;;;;4934901;29;20193;-61
2023/11/28 10:03:40;;;;;;;0.40;0.40;;;4.70;96.30;;;;;;4934892;29;20274;-61
2023/11/28 10:06:09;;;;;;;0.40;0.40;;;4.80;96.50;;;;;;4929452;29;20575;-61
2023/11/28 10:08:36;;;;;;;0.40;0.40;;;4.80;96.80;;;;;;4918971;29;20238;-61
2023/11/28 10:11:04;;;;;;;1.50;1.30;;;4.90;97.00;;;;;;4932075;29;20342;-62
2023/11/28 10:13:30;;;;;;;0.40;0.40;;;5.00;96.50;;;;;;4917741;29;20174;-61
2023/11/28 10:15:58;;;;;;;0.30;0.30;;;5.10;96.10;;;;;;4934913;29;20166;-61
2023/11/28 10:18:25;;;;;;;0.40;0.40;;;5.00;95.00;;;;;;4935044;29;20466;-61
2023/11/28 10:20:51;;;;;;;0.30;0.30;;;5.00;95.50;;;;;;4934854;29;20392;-61
2023/11/28 10:23:18;;;;;;;0.30;0.30;;;5.00;95.50;;;;;;4934607;29;20285;-61
2023/11/28 10:25:44;;;;;;;1.58;1.20;;;5.10;95.80;;;;;;4934730;29;20736;-61
2023/11/28 10:28:14;;;;;;;0.40;0.40;;;5.30;95.60;;;;;;4934696;29;20174;-61
2023/11/28 10:30:45;;;;;;;0.40;0.40;;;5.40;95.00;;;;;;4934659;29;20198;-61
2023/11/28 10:33:11;;;;;;;0.30;0.30;;;5.30;94.30;;;;;;4934002;29;20186;-61
2023/11/28 10:35:44;;;;;;;0.40;0.40;;;5.00;93.60;;;;;;4934550;29;20212;-61
2023/11/28 10:38:17;;;;;;;0.50;0.50;;;4.90;94.40;;;;;;4934642;29;20178;-61
2023/11/28 10:40:47;;;;;;;0.40;0.40;;;5.00;94.60;;;;;;4934363;29;20254;-61
2023/11/28 10:43:13;;;;;;;0.40;0.40;;;5.20;95.10;;;;;;4934292;29;20257;-62
2023/11/28 10:45:42;;;;;;;2.17;2.08;;;5.10;94.30;;;;;;4934637;29;20210;-60
2023/11/28 10:48:08;;;;;;;1.45;1.35;;;5.00;94.10;;;;;;4934652;29;20239;-61
2023/11/28 10:50:33;;;;;;;0.53;0.53;;;5.00;94.20;;;;;;4934364;29;20627;-61
2023/11/28 10:53:06;;;;;;;0.63;0.63;;;5.00;94.00;;;;;;4934215;29;20178;-60
2023/11/28 10:55:41;;;;;;;0.52;0.52;;;4.80;94.70;;;;;;4926122;29;20186;-61
2023/11/28 10:58:15;;;;;;;0.50;0.50;;;4.70;94.20;;;;;;4919124;29;20212;-61
2023/11/28 11:00:44;;;;;;;0.82;0.82;;;4.70;94.30;;;;;;4934299;29;20210;-61
2023/11/28 11:03:14;;;;;;;0.40;0.40;;;4.70;94.90;;;;;;4924514;29;20227;-60
2023/11/28 11:05:44;;;;;;;0.77;0.70;;;4.60;94.70;;;;;;4914688;29;20697;-60
2023/11/28 11:08:10;;;;;;;1.50;1.40;;;4.50;94.60;;;;;;4915445;29;20912;-60
2023/11/28 11:10:41;;;;;;;0.50;0.50;;;4.60;94.70;;;;;;4916389;29;20199;-60
2023/11/28 11:13:51;;;;;;;0.50;0.50;;;4.50;94.90;;;;;;4934226;29;20171;-60
2023/11/28 11:16:32;;;;;;;1.27;1.27;;;4.70;95.60;;;;;;4919585;29;20252;-60
2023/11/28 11:19:00;;;;;;;0.50;0.50;;;4.80;94.30;;;;;;4934427;29;20170;-60
2023/11/28 11:21:56;;;;;;;0.90;0.90;;;4.70;93.90;;;;;;4934265;29;20719;-60
2023/11/28 11:24:22;;;;;;;0.40;0.40;;;4.70;93.40;;;;;;4933874;29;20170;-60
2023/11/28 11:26:51;;;;;;;0.40;0.40;;;4.60;93.70;;;;;;4934128;29;20178;-60
2023/11/28 11:29:26;;;;;;;0.40;0.40;;;4.50;94.00;;;;;;4920557;29;20187;-60
2023/11/28 11:31:55;;;;;;;0.50;0.50;;;4.50;94.40;;;;;;4915075;29;20199;-60
2023/11/28 11:34:41;;;;;;;0.50;0.50;;;4.50;94.20;;;;;;4914968;29;20208;-60
2023/11/28 11:37:19;;;;;;;0.50;0.50;;;4.70;94.60;;;;;;4914949;29;20215;-60
2023/11/28 11:39:48;;;;;;;0.70;0.55;;;4.90;93.80;;;;;;4915296;29;20736;-60
2023/11/28 11:42:14;;;;;;;0.52;0.52;;;5.20;93.40;;;;;;4915053;29;20183;-60
2023/11/28 11:44:41;;;;;;;0.87;0.87;;;5.40;92.60;;;;;;4914994;29;20235;-59
2023/11/28 11:47:18;;;;;;;0.52;0.52;;;5.50;92.40;;;;;;4915391;29;20762;-60
2023/11/28 11:49:45;;;;;;;0.40;0.40;;;5.40;92.40;;;;;;4914992;29;20610;-61
2023/11/28 11:52:13;;;;;;;0.40;0.40;;;5.40;92.50;;;;;;4914815;29;20219;-60
2023/11/28 11:54:43;;;;;;;0.57;0.57;;;5.00;91.80;;;;;;4914957;29;20235;-60
2023/11/28 11:57:10;;;;;;;0.40;0.40;;;4.60;92.10;;;;;;4915019;29;20709;-61
2023/11/28 11:59:36;;;;;;;0.50;0.50;;;4.30;92.40;;;;;;4914769;29;20680;-60
2023/11/28 12:02:02;;;;;;;0.57;0.57;;;4.10;92.80;;;;;;4914784;29;20206;-60
2023/11/28 12:04:29;;;;;;;0.40;0.40;;;4.00;93.30;;;;;;4914463;29;20171;-61
2023/11/28 12:07:08;;;;;;;2.55;0.63;;;3.90;93.50;;;;;;4915460;29;20427;-61
2023/11/28 12:09:37;;;;;;;0.55;0.55;;;3.70;93.20;;;;;;4918455;29;20286;-61
2023/11/28 12:12:05;;;;;;;0.50;0.50;;;3.70;94.00;;;;;;4918259;29;20613;-60
2023/11/28 12:14:36;;;;;;;1.15;0.50;;;3.80;94.40;;;;;;4917757;29;20182;-61
2023/11/28 12:17:02;;;;;;;0.50;0.50;;;3.90;94.00;;;;;;4917906;29;20554;-62
2023/11/28 12:19:29;;;;;;;0.60;0.60;;;3.90;93.60;;;;;;4918088;29;20229;-62
2023/11/28 12:22:05;;;;;;;0.88;0.88;;;3.90;93.80;;;;;;4901105;29;20438;-62
2023/11/28 12:24:31;;;;;;;0.50;0.40;;;3.70;94.20;;;;;;4917635;29;20175;-62
2023/11/28 12:26:59;;;;;;;0.40;0.40;;;4.00;94.80;;;;;;4917848;29;20175;-63
2023/11/28 12:29:25;;;;;;;0.40;0.40;;;4.40;94.60;;;;;;4916119;29;20669;-61
2023/11/28 12:31:52;;;;;;;0.52;0.52;;;4.60;94.00;;;;;;4940467;29;20213;-62
2023/11/28 12:34:22;;;;;;;0.70;0.70;;;4.90;93.60;;;;;;4929985;29;20261;-61
2023/11/28 12:36:48;;;;;;;0.40;0.40;;;5.10;93.50;;;;;;4920676;29;20667;-60
2023/11/28 12:39:14;;;;;;;0.77;0.77;;;5.10;92.60;;;;;;4922292;29;20211;-60
2023/11/28 12:41:41;;;;;;;0.60;0.60;;;5.00;93.00;;;;;;4933794;29;20202;-60
2023/11/28 12:44:13;;;;;;;0.40;0.40;;;4.80;92.90;;;;;;4933874;29;20649;-60
2023/11/28 12:46:40;;;;;;;0.68;0.68;;;4.60;92.80;;;;;;4900433;29;20217;-60
2023/11/28 12:49:07;;;;;;;0.63;0.63;;;4.40;92.90;;;;;;4917432;29;20171;-60
2023/11/28 12:51:33;;;;;;;0.45;0.45;;;4.40;93.60;;;;;;4917246;29;20215;-59
2023/11/28 12:54:12;;;;;;;0.70;0.70;;;4.30;93.10;;;;;;4929726;29;20189;-60
2023/11/28 12:56:52;;;;;;;0.60;0.60;;;4.10;93.30;;;;;;4936385;29;20177;-60